Time;durP1;ratioP1;P1;durP2;ratioP2;P2;SDS_P1;SDS_P2;PMS_P1;PMS_P2;Temp;Humidity;BMP_temperature;BMP_pressure;BME280_temperature;BME280_humidity;BME280_pressure;Samples;Min_cycle;Max_cycle;Signal;HPM_P1;HPM_P2
2022/04/12 00:00:37;;;;;;;;;;;;;;;20.51;44.43;101368.91;4980156;28;4556;-49
2022/04/12 00:03:03;;;;;;;;;;;;;;;20.50;44.51;101371.03;4978896;28;4211;-51
2022/04/12 00:05:30;;;;;;;;;;;;;;;20.49;44.62;101368.78;4980809;28;4134;-49
2022/04/12 00:07:57;;;;;;;;;;;;;;;20.50;44.55;101373.13;4980080;28;4152;-51
2022/04/12 00:10:24;;;;;;;;;;;;;;;20.49;44.65;101372.41;4979089;28;4393;-49
2022/04/12 00:12:50;;;;;;;;;;;;;;;20.51;44.57;101375.38;4979842;28;5619;-48
2022/04/12 00:15:16;;;;;;;;;;;;;;;20.49;44.68;101380.28;4977453;28;4166;-49
2022/04/12 00:20:28;;;;;;;;;;;;;;;20.47;44.65;101375.16;4982348;28;5330;-48
2022/04/12 00:22:55;;;;;;;;;;;;;;;20.47;44.67;101380.16;4978929;28;4268;-48
2022/04/12 00:25:22;;;;;;;;;;;;;;;20.47;44.66;101374.41;4979052;28;4178;-49
2022/04/12 00:27:49;;;;;;;;;;;;;;;20.46;44.56;101379.44;4981144;28;4097;-49
2022/04/12 00:30:15;;;;;;;;;;;;;;;20.47;44.68;101380.91;4975297;28;5306;-48
2022/04/12 00:32:42;;;;;;;;;;;;;;;20.46;44.47;101381.56;4980462;28;4223;-49
2022/04/12 00:35:08;;;;;;;;;;;;;;;20.44;44.54;101387.94;4980905;28;4306;-50
2022/04/12 00:37:34;;;;;;;;;;;;;;;20.43;44.75;101380.72;4978308;28;4165;-52
2022/04/12 00:40:01;;;;;;;;;;;;;;;20.45;44.66;101380.81;4976439;28;4232;-52
2022/04/12 00:42:27;;;;;;;;;;;;;;;20.47;44.71;101383.06;4978918;28;4239;-52
2022/04/12 00:44:53;;;;;;;;;;;;;;;20.48;44.56;101370.19;4979370;28;5259;-50
2022/04/12 00:47:20;;;;;;;;;;;;;;;20.46;44.56;101379.44;4978002;28;4369;-50
2022/04/12 00:49:46;;;;;;;;;;;;;;;20.44;44.63;101376.44;4980487;28;4252;-49
2022/04/12 00:52:12;;;;;;;;;;;;;;;20.45;44.57;101377.91;4980096;28;4315;-52
2022/04/12 00:54:39;;;;;;;;;;;;;;;20.45;44.64;101371.44;4969706;28;4234;-50
2022/04/12 00:57:06;;;;;;;;;;;;;;;20.45;44.66;101371.44;4975954;28;4289;-50
2022/04/12 00:59:32;;;;;;;;;;;;;;;20.43;44.70;101369.22;4977886;28;4158;-51
2022/04/12 01:01:58;;;;;;;;;;;;;;;20.44;44.50;101369.94;4978221;28;5066;-53
2022/04/12 01:04:25;;;;;;;;;;;;;;;20.43;44.58;101363.47;4980082;28;6398;-47
2022/04/12 01:06:52;;;;;;;;;;;;;;;20.42;44.59;101375.59;4979765;28;4330;-48
2022/04/12 01:09:21;;;;;;;;;;;;;;;20.43;44.46;101371.31;4975866;28;4057;-52
2022/04/12 01:11:48;;;;;;;;;;;;;;;20.43;44.49;101366.34;4980634;28;4208;-50
2022/04/12 01:14:15;;;;;;;;;;;;;;;20.44;44.49;101364.94;4976402;28;4283;-51
2022/04/12 01:16:41;;;;;;;;;;;;;;;20.43;44.57;101369.22;4980184;28;4106;-50
2022/04/12 01:19:08;;;;;;;;;;;;;;;20.43;44.49;101369.22;4971523;28;4034;-48
2022/04/12 01:21:54;;;;;;;;;;;;;;;20.45;44.47;101366.41;4978030;28;4066;-50
2022/04/12 01:24:21;;;;;;;;;;;;;;;20.43;44.67;101363.47;4979754;28;5537;-49
2022/04/12 01:26:47;;;;;;;;;;;;;;;20.39;44.89;101360.34;4980307;28;4231;-48
2022/04/12 01:29:14;;;;;;;;;;;;;;;20.43;44.71;101363.47;4972879;28;5553;-48
2022/04/12 01:31:40;;;;;;;;;;;;;;;20.46;44.57;101367.19;4972981;28;5462;-51
2022/04/12 01:34:07;;;;;;;;;;;;;;;20.45;44.74;101354.91;4973208;28;4168;-49
2022/04/12 01:36:33;;;;;;;;;;;;;;;20.46;44.65;101358.56;4977872;28;4183;-48
2022/04/12 01:39:01;;;;;;;;;;;;;;;20.46;44.50;101356.41;4979930;28;5440;-49
2022/04/12 01:41:29;;;;;;;;;;;;;;;20.47;44.35;101357.16;4976683;28;4325;-49
2022/04/12 01:43:55;;;;;;;;;;;;;;;20.47;44.28;101363.66;4977757;28;4261;-47
2022/04/12 01:46:21;;;;;;;;;;;;;;;20.47;44.36;101366.53;4979151;28;4169;-50
2022/04/12 01:48:49;;;;;;;;;;;;;;;20.47;44.41;101366.53;4979229;28;5310;-47
2022/04/12 01:51:15;;;;;;;;;;;;;;;20.49;44.41;101369.53;4978650;28;4544;-49
2022/04/12 01:53:42;;;;;;;;;;;;;;;20.48;44.25;101373.78;4980544;28;6347;-49
2022/04/12 01:56:08;;;;;;;;;;;;;;;20.49;44.33;101366.66;4976845;28;4270;-48
2022/04/12 01:58:36;;;;;;;;;;;;;;;20.49;44.44;101365.91;4975981;28;4147;-54
2022/04/12 02:01:02;;;;;;;;;;;;;;;20.50;44.36;101361.63;4978084;28;4186;-49
2022/04/12 02:03:29;;;;;;;;;;;;;;;20.50;44.36;101356.66;4976378;28;4182;-47
2022/04/12 02:05:55;;;;;;;;;;;;;;;20.49;44.28;101358.00;4973315;28;4299;-47
2022/04/12 02:08:21;;;;;;;;;;;;;;;20.49;44.41;101354.41;4976858;28;4536;-50
2022/04/12 02:10:48;;;;;;;;;;;;;;;20.47;44.44;101351.41;4978651;28;5379;-48
2022/04/12 02:13:16;;;;;;;;;;;;;;;20.49;44.35;101351.50;4976344;28;5294;-48
2022/04/12 02:15:45;;;;;;;;;;;;;;;20.48;44.32;101347.16;4975710;28;4270;-50
2022/04/12 02:18:12;;;;;;;;;;;;;;;20.48;44.32;101350.78;4980544;28;4195;-48
2022/04/12 02:20:38;;;;;;;;;;;;;;;20.47;44.27;101351.41;4975830;28;5469;-48
2022/04/12 02:23:04;;;;;;;;;;;;;;;20.45;44.22;101343.41;4976089;28;4192;-50
2022/04/12 02:25:31;;;;;;;;;;;;;;;20.45;44.17;101343.41;4978642;28;3955;-48
2022/04/12 02:27:57;;;;;;;;;;;;;;;20.47;44.28;101346.41;4977752;28;4262;-48
2022/04/12 02:30:24;;;;;;;;;;;;;;;20.46;44.27;101338.41;4977417;28;4218;-47
2022/04/12 02:32:50;;;;;;;;;;;;;;;20.47;44.44;101340.63;4977648;28;4211;-47
2022/04/12 02:35:16;;;;;;;;;;;;;;;20.47;44.27;101337.75;4980226;28;4233;-51
2022/04/12 02:37:43;;;;;;;;;;;;;;;20.49;44.28;101337.13;4977578;28;4236;-51
2022/04/12 02:40:09;;;;;;;;;;;;;;;20.45;44.37;101337.66;4972855;28;4514;-51
2022/04/12 02:42:36;;;;;;;;;;;;;;;20.43;44.42;101326.06;4978378;28;5427;-51
2022/04/12 02:45:02;;;;;;;;;;;;;;;20.43;44.28;101340.44;4977956;28;4197;-50
2022/04/12 02:47:28;;;;;;;;;;;;;;;20.44;44.29;101339.03;4979329;28;4193;-51
2022/04/12 02:49:55;;;;;;;;;;;;;;;20.43;44.34;101346.19;4976754;28;4286;-50
2022/04/12 02:52:21;;;;;;;;;;;;;;;20.42;44.37;101344.69;4975373;28;4468;-48
2022/04/12 02:54:47;;;;;;;;;;;;;;;20.44;44.31;101346.94;4978184;28;4278;-50
2022/04/12 02:57:15;;;;;;;;;;;;;;;20.43;44.29;101342.56;4978348;28;4282;-50
2022/04/12 02:59:42;;;;;;;;;;;;;;;20.44;44.33;101355.56;4976197;28;4308;-49
2022/04/12 03:02:08;;;;;;;;;;;;;;;20.42;44.38;101356.19;4977701;28;4232;-50
2022/04/12 03:04:40;;;;;;;;;;;;;;;20.45;44.32;101348.41;4979071;28;4143;-47
2022/04/12 03:07:07;;;;;;;;;;;;;;;20.41;44.53;101354.72;4976129;28;5195;-48
2022/04/12 03:09:34;;;;;;;;;;;;;;;20.45;44.37;101360.66;4975019;28;4254;-47
2022/04/12 03:12:01;;;;;;;;;;;;;;;20.42;44.57;101361.94;4977909;28;4247;-48
2022/04/12 03:14:27;;;;;;;;;;;;;;;20.42;44.58;101356.19;4976476;28;4595;-49
2022/04/12 03:16:54;;;;;;;;;;;;;;;20.46;44.43;101361.44;4977916;28;4081;-48
2022/04/12 03:19:20;;;;;;;;;;;;;;;20.44;44.62;101364.19;4976604;28;4187;-48
2022/04/12 03:21:46;;;;;;;;;;;;;;;20.46;44.52;101362.16;4971902;28;4182;-49
2022/04/12 03:24:13;;;;;;;;;;;;;;;20.46;44.41;101362.16;4975498;28;5581;-48
2022/04/12 03:26:39;;;;;;;;;;;;;;;20.46;44.53;101356.41;4978074;28;4243;-48
2022/04/12 03:29:07;;;;;;;;;;;;;;;20.45;44.45;101366.41;4978598;28;4349;-48
2022/04/12 03:31:33;;;;;;;;;;;;;;;20.44;44.47;101359.19;4976162;28;4252;-48
2022/04/12 03:34:00;;;;;;;;;;;;;;;20.45;44.43;101362.81;4977620;28;4275;-50
2022/04/12 03:36:26;;;;;;;;;;;;;;;20.44;44.41;101369.94;4975603;28;5319;-48
2022/04/12 03:38:52;;;;;;;;;;;;;;;20.45;44.40;101363.53;4977007;28;4220;-49
2022/04/12 03:41:21;;;;;;;;;;;;;;;20.44;44.37;101376.44;4976145;28;4272;-50
2022/04/12 03:43:47;;;;;;;;;;;;;;;20.44;44.49;101373.56;4976610;28;4248;-47
2022/04/12 03:46:14;;;;;;;;;;;;;;;20.45;44.41;101371.44;4975357;28;4226;-49
2022/04/12 03:48:40;;;;;;;;;;;;;;;20.46;44.36;101373.69;4979441;28;5281;-49
2022/04/12 03:51:07;;;;;;;;;;;;;;;20.45;44.40;101363.53;4975155;28;4281;-48
2022/04/12 03:53:33;;;;;;;;;;;;;;;20.46;44.33;101367.94;4976411;28;3971;-49
2022/04/12 03:56:02;;;;;;;;;;;;;;;20.50;44.28;101373.91;4974540;28;4204;-49
2022/04/12 03:58:28;;;;;;;;;;;;;;;20.46;44.37;101379.44;4973784;28;6538;-49
2022/04/12 04:00:55;;;;;;;;;;;;;;;20.46;44.39;101376.56;4975287;28;4159;-50
2022/04/12 04:03:21;;;;;;;;;;;;;;;20.48;44.38;101382.41;4973795;28;4208;-47
2022/04/12 04:05:48;;;;;;;;;;;;;;;20.45;44.44;101375.03;4975885;28;4304;-51
2022/04/12 04:08:15;;;;;;;;;;;;;;;20.47;44.46;101372.28;4974873;28;4512;-48
2022/04/12 04:10:41;;;;;;;;;;;;;;;20.46;44.43;101379.44;4977139;28;4248;-50
2022/04/12 04:13:08;;;;;;;;;;;;;;;20.45;44.43;101380.81;4975910;28;4333;-53
2022/04/12 04:15:36;;;;;;;;;;;;;;;20.47;44.34;101375.16;4976166;28;4091;-49
2022/04/12 04:18:02;;;;;;;;;;;;;;;20.44;44.39;101370.69;4975289;28;4142;-51
2022/04/12 04:20:29;;;;;;;;;;;;;;;20.44;44.49;101375.72;4976037;28;4331;-49
2022/04/12 04:22:55;;;;;;;;;;;;;;;20.45;44.32;101380.06;4977217;28;5651;-49
2022/04/12 04:25:21;;;;;;;;;;;;;;;20.44;44.33;101382.19;4979647;28;4295;-48
2022/04/12 04:27:49;;;;;;;;;;;;;;;20.41;44.52;101374.84;4980615;28;4239;-49
2022/04/12 04:30:17;;;;;;;;;;;;;;;20.43;44.43;101380.72;4976237;28;4589;-51
2022/04/12 04:32:44;;;;;;;;;;;;;;;20.48;44.13;101376.66;4980449;28;4174;-49
2022/04/12 04:35:10;;;;;;;;;;;;;;;20.47;44.26;101372.28;4979933;28;5172;-48
2022/04/12 04:37:45;;;;;;;;;;;;;;;20.45;44.36;101369.28;4979994;28;4087;-50
2022/04/12 04:40:19;;;;;;;;;;;;;;;20.45;44.34;101372.16;4975207;28;4109;-51
2022/04/12 04:42:45;;;;;;;;;;;;;;;20.54;44.11;101366.88;4981622;28;4170;-49
2022/04/12 04:45:12;;;;;;;;;;;;;;;20.53;44.19;101376.91;4979052;28;4027;-51
2022/04/12 04:47:48;;;;;;;;;;;;;;;20.51;44.24;101374.66;4980747;28;4184;-51
2022/04/12 04:50:15;;;;;;;;;;;;;;;20.55;44.04;101371.22;4978430;28;4546;-52
2022/04/12 04:52:41;;;;;;;;;;;;;;;20.51;44.22;101378.25;4978591;28;4332;-51
2022/04/12 04:55:08;;;;;;;;;;;;;;;20.50;44.15;101370.25;4980027;28;4390;-50
2022/04/12 04:57:37;;;;;;;;;;;;;;;20.50;44.23;101367.38;4980151;28;4303;-49
2022/04/12 05:00:05;;;;;;;;;;;;;;;20.52;44.11;101376.13;4981018;28;4149;-50
2022/04/12 05:02:32;;;;;;;;;;;;;;;20.53;43.99;101380.50;4978022;28;4176;-51
2022/04/12 05:04:58;;;;;;;;;;;;;;;20.55;43.94;101388.50;4979740;28;5290;-56
2022/04/12 05:07:25;;;;;;;;;;;;;;;20.55;44.09;101385.59;4977066;28;4246;-53
2022/04/12 05:09:54;;;;;;;;;;;;;;;20.53;44.05;101389.16;4979355;28;4177;-51
2022/04/12 05:12:21;;;;;;;;;;;;;;;20.57;43.98;101383.66;4978658;28;4229;-53
2022/04/12 05:14:47;;;;;;;;;;;;;;;20.58;44.01;101387.25;4980109;28;4394;-67
2022/04/12 05:17:17;;;;;;;;;;;;;;;20.54;43.88;101389.88;4969849;28;4209;-49
2022/04/12 05:19:43;;;;;;;;;;;;;;;20.60;43.69;101390.25;4974622;28;4043;-48
2022/04/12 05:22:09;;;;;;;;;;;;;;;20.58;43.77;101385.13;4974285;28;5283;-48
2022/04/12 05:24:36;;;;;;;;;;;;;;;20.58;43.74;101384.38;4978307;28;4433;-48
2022/04/12 05:27:02;;;;;;;;;;;;;;;20.59;43.78;101392.38;4978625;28;4647;-52
2022/04/12 05:29:28;;;;;;;;;;;;;;;20.65;43.64;101383.31;4971822;28;4034;-58
2022/04/12 05:31:55;;;;;;;;;;;;;;;20.78;44.21;101391.22;4970253;28;4032;-53
2022/04/12 05:34:21;;;;;;;;;;;;;;;20.81;43.83;101389.94;4970796;28;4541;-59
2022/04/12 05:36:47;;;;;;;;;;;;;;;20.82;43.67;101396.44;4976499;28;4231;-55
2022/04/12 05:39:14;;;;;;;;;;;;;;;20.81;43.60;101394.94;4972419;28;5467;-59
2022/04/12 05:41:40;;;;;;;;;;;;;;;20.74;43.95;101396.75;4973461;28;4261;-60
2022/04/12 05:44:07;;;;;;;;;;;;;;;20.76;43.90;101393.25;4976540;28;4138;-62
2022/04/12 05:46:33;;;;;;;;;;;;;;;20.71;43.68;101395.16;4959473;28;4192;-61
2022/04/12 05:49:00;;;;;;;;;;;;;;;20.65;43.84;101401.31;4974381;28;4311;-62
2022/04/12 05:51:27;;;;;;;;;;;;;;;20.67;43.78;101409.34;4976380;28;4186;-62
2022/04/12 05:53:53;;;;;;;;;;;;;;;20.71;43.78;101403.81;4979947;28;4209;-62
2022/04/12 05:56:19;;;;;;;;;;;;;;;20.70;43.92;101413.81;4975278;28;4211;-62
2022/04/12 05:58:46;;;;;;;;;;;;;;;20.67;43.95;101409.34;4977872;28;4089;-62
2022/04/12 06:01:12;;;;;;;;;;;;;;;20.68;43.92;101420.22;4975593;28;5278;-62
2022/04/12 06:03:39;;;;;;;;;;;;;;;20.71;43.83;101418.19;4978511;28;5386;-61
2022/04/12 06:06:06;;;;;;;;;;;;;;;20.75;43.73;101429.91;4977175;28;4567;-61
2022/04/12 06:08:33;;;;;;;;;;;;;;;20.75;43.84;101429.91;4976421;28;4420;-58
2022/04/12 06:10:59;;;;;;;;;;;;;;;20.77;43.77;101430.00;4976580;28;5328;-58
2022/04/12 06:13:26;;;;;;;;;;;;;;;20.75;43.66;101432.03;4976025;28;4221;-58
2022/04/12 06:15:52;;;;;;;;;;;;;;;20.74;43.88;101430.56;4978104;28;4039;-58
2022/04/12 06:18:19;;;;;;;;;;;;;;;20.77;43.80;101423.50;4974182;28;4262;-60
2022/04/12 06:20:45;;;;;;;;;;;;;;;20.20;37.48;101421.13;4971563;28;4040;-60
2022/04/12 06:23:11;;;;;;;;;;;;;;;19.59;34.34;101430.59;4970482;28;4045;-54
2022/04/12 06:25:38;;;;;;;;;;;;;;;19.76;33.98;101431.56;4977579;28;4505;-53
2022/04/12 06:28:07;;;;;;;;;;;;;;;20.00;34.54;101438.00;4972248;28;4334;-60
2022/04/12 06:30:34;;;;;;;;;;;;;;;19.88;34.37;101443.75;4969634;28;4113;-56
2022/04/12 06:33:00;;;;;;;;;;;;;;;20.06;35.44;101439.06;4973129;28;4230;-56
2022/04/12 06:35:26;;;;;;;;;;;;;;;20.26;38.04;101432.97;4970375;28;4170;-53
2022/04/12 06:37:59;;;;;;;;;;;;;;;20.38;38.77;101435.78;4974106;28;4200;-55
2022/04/12 06:40:25;;;;;;;;;;;;;;;20.42;39.20;101433.88;4972916;28;5440;-55
2022/04/12 06:42:51;;;;;;;;;;;;;;;20.45;39.46;101441.22;4975997;28;4247;-55
2022/04/12 06:45:18;;;;;;;;;;;;;;;20.47;39.92;101441.31;4975070;28;4048;-56
2022/04/12 06:47:45;;;;;;;;;;;;;;;20.46;40.22;101442.72;4977014;28;4384;-57
2022/04/12 06:50:11;;;;;;;;;;;;;;;20.48;40.57;101445.72;4975754;28;4284;-56
2022/04/12 06:52:37;;;;;;;;;;;;;;;20.49;40.62;101452.94;5018238;22;4154;-56
2022/04/12 06:55:04;;;;;;;;;;;;;;;20.49;40.75;101455.81;5009289;28;6380;-54
2022/04/12 06:57:32;;;;;;;;;;;;;;;20.50;41.05;101456.56;5017634;28;4227;-56
2022/04/12 06:59:58;;;;;;;;;;;;;;;20.53;40.95;101457.44;5015107;28;4144;-64
2022/04/12 07:02:24;;;;;;;;;;;;;;;20.56;40.97;101461.94;5014207;28;4175;-58
2022/04/12 07:04:51;;;;;;;;;;;;;;;20.56;41.31;101467.69;5015707;28;4224;-58
2022/04/12 07:07:17;;;;;;;;;;;;;;;20.57;41.36;101463.44;5016402;28;4265;-57
2022/04/12 07:09:44;;;;;;;;;;;;;;;20.58;41.38;101457.06;5014899;28;5264;-57
2022/04/12 07:12:10;;;;;;;;;;;;;;;20.58;41.45;101459.19;5006789;28;4261;-55
2022/04/12 07:14:36;;;;;;;;;;;;;;;20.58;41.58;101468.56;5004874;28;4186;-54
2022/04/12 07:17:03;;;;;;;;;;;;;;;20.54;41.16;101458.94;5008885;28;4201;-45
2022/04/12 07:19:29;;;;;;;;;;;;;;;20.57;41.51;101460.56;5015051;28;5254;-45
2022/04/12 07:21:56;;;;;;;;;;;;;;;20.57;41.59;101457.69;5010523;28;4271;-46
2022/04/12 07:24:22;;;;;;;;;;;;;;;20.60;41.46;101456.44;5012618;28;4256;-45
2022/04/12 07:26:49;;;;;;;;;;;;;;;20.60;41.64;101450.69;5013427;28;4077;-46
2022/04/12 07:29:15;;;;;;;;;;;;;;;20.75;41.42;101455.06;5009736;28;4221;-47
2022/04/12 07:31:41;;;;;;;;;;;;;;;20.81;41.75;101455.41;5010287;28;4137;-47
2022/04/12 07:34:09;;;;;;;;;;;;;;;20.80;42.13;101457.53;5006377;28;4384;-54
2022/04/12 07:36:39;;;;;;;;;;;;;;;20.78;42.14;101460.31;5006592;28;4226;-57
2022/04/12 07:39:11;;;;;;;;;;;;;;;20.86;42.11;101457.84;5015753;28;4287;-57
2022/04/12 07:41:39;;;;;;;;;;;;;;;20.86;42.17;101454.97;5015185;28;4085;-48
2022/04/12 07:44:05;;;;;;;;;;;;;;;20.78;42.45;101463.19;5014822;28;4247;-49
2022/04/12 07:46:31;;;;;;;;;;;;;;;20.83;42.40;101462.00;5010201;28;4090;-47
2022/04/12 07:48:58;;;;;;;;;;;;;;;20.87;42.32;101462.22;5008602;28;4391;-48
2022/04/12 07:51:24;;;;;;;;;;;;;;;20.88;42.32;101457.97;5004530;28;4288;-46
2022/04/12 07:53:50;;;;;;;;;;;;;;;20.91;42.33;101456.69;5010885;28;5556;-47
2022/04/12 07:56:17;;;;;;;;;;;;;;;20.99;42.40;101456.38;5010791;28;4192;-46
2022/04/12 07:58:43;;;;;;;;;;;;;;;20.97;42.38;101455.53;5016566;28;4100;-46
2022/04/12 08:01:10;;;;;;;;;;;;;;;21.01;42.41;101464.38;5009865;28;5295;-47
2022/04/12 08:03:37;;;;;;;;;;;;;;;20.97;42.43;101458.41;5015073;28;4081;-47
2022/04/12 08:06:03;;;;;;;;;;;;;;;21.00;42.43;101451.34;5015799;28;5252;-46
2022/04/12 08:08:32;;;;;;;;;;;;;;;21.00;42.42;101457.13;5016402;28;5199;-47
2022/04/12 08:10:58;;;;;;;;;;;;;;;21.00;42.53;101457.13;5011149;28;4238;-46
2022/04/12 08:13:30;;;;;;;;;;;;;;;21.09;42.46;101448.25;5015857;28;4180;-46
2022/04/12 08:15:56;;;;;;;;;;;;;;;21.07;42.45;101444.53;5008424;28;4250;-47
2022/04/12 08:18:23;;;;;;;;;;;;;;;21.12;42.51;101443.38;5011286;28;4336;-49
2022/04/12 08:20:49;;;;;;;;;;;;;;;21.12;42.33;101441.25;5010070;28;4089;-50
2022/04/12 08:23:16;;;;;;;;;;;;;;;21.12;42.45;101452.03;5010943;28;4180;-49
2022/04/12 08:25:42;;;;;;;;;;;;;;;21.03;41.21;101450.09;5018030;28;5117;-49
2022/04/12 08:28:09;;;;;;;;;;;;;;;20.87;41.43;101450.72;5014201;28;4247;-48
2022/04/12 08:30:36;;;;;;;;;;;;;;;21.02;41.91;101451.47;5005271;28;4089;-48
2022/04/12 08:33:02;;;;;;;;;;;;;;;21.01;42.03;101447.84;5009751;28;4170;-47
2022/04/12 08:35:29;;;;;;;;;;;;;;;21.15;41.97;101456.50;5015818;28;4146;-48
2022/04/12 08:37:55;;;;;;;;;;;;;;;21.13;41.65;101459.25;5013636;28;4255;-46
2022/04/12 08:40:22;;;;;;;;;;;;;;;21.13;41.54;101459.25;5009262;28;4286;-47
2022/04/12 08:42:48;;;;;;;;;;;;;;;21.13;41.44;101453.50;5014408;28;5130;-47
2022/04/12 08:45:14;;;;;;;;;;;;;;;21.14;41.33;101454.97;5014338;28;4266;-47
2022/04/12 08:47:41;;;;;;;;;;;;;;;21.13;40.85;101453.50;5013015;28;4584;-47
2022/04/12 08:50:07;;;;;;;;;;;;;;;21.14;40.58;101452.09;5016054;28;4566;-46
2022/04/12 08:52:37;;;;;;;;;;;;;;;21.15;40.89;101470.88;5015026;28;4259;-47
2022/04/12 08:55:04;;;;;;;;;;;;;;;21.17;40.81;101465.25;5016868;28;4086;-48
2022/04/12 08:57:31;;;;;;;;;;;;;;;21.14;40.46;101454.97;5011174;28;4086;-53
2022/04/12 08:59:57;;;;;;;;;;;;;;;21.12;40.43;101454.91;5008192;28;4244;-55
2022/04/12 09:02:24;;;;;;;;;;;;;;;21.09;40.90;101447.53;5000593;28;4188;-54
2022/04/12 09:04:50;;;;;;;;;;;;;;;21.11;41.32;101439.00;5004737;28;4185;-51
2022/04/12 09:07:17;;;;;;;;;;;;;;;21.16;42.24;101439.94;5014523;28;4192;-48
2022/04/12 09:09:44;;;;;;;;;;;;;;;21.19;42.97;101445.19;5012904;28;4081;-48
2022/04/12 09:12:10;;;;;;;;;;;;;;;21.21;43.05;101448.19;5006642;28;5226;-53
2022/04/12 09:14:37;;;;;;;;;;;;;;;21.13;42.59;101450.63;5008087;28;4093;-49
2022/04/12 09:17:04;;;;;;;;;;;;;;;21.03;42.86;101435.72;5005982;28;4264;-49
2022/04/12 09:19:37;;;;;;;;;;;;;;;21.01;43.32;101442.09;5016135;28;4259;-49
2022/04/12 09:22:11;;;;;;;;;;;;;;;21.00;42.97;101439.84;5012045;28;4213;-51
2022/04/12 09:24:42;;;;;;;;;;;;;;;20.97;43.41;101438.25;5012339;28;4448;-52
2022/04/12 09:27:10;;;;;;;;;;;;;;;20.98;43.68;101431.09;5013395;28;4590;-52
2022/04/12 09:29:37;;;;;;;;;;;;;;;20.97;43.81;101439.00;5014380;28;4292;-49
2022/04/12 09:32:04;;;;;;;;;;;;;;;20.96;43.71;101439.63;5004503;28;4292;-51
2022/04/12 09:34:30;;;;;;;;;;;;;;;20.96;43.85;101439.63;5016482;28;5548;-50
2022/04/12 09:37:17;;;;;;;;;;;;;;;20.98;43.63;101442.59;5006175;28;4337;-51
2022/04/12 09:39:59;;;;;;;;;;;;;;;20.99;43.80;101438.38;5011561;28;4257;-55
2022/04/12 09:42:44;;;;;;;;;;;;;;;20.88;42.18;101429.16;5012549;28;4528;-62
2022/04/12 09:45:12;;;;;;;;;;;;;;;20.69;39.87;101438.22;5012275;28;4433;-64
2022/04/12 09:47:39;;;;;;;;;;;;;;;20.54;37.79;101430.16;5013996;28;4306;-62
2022/04/12 09:50:26;;;;;;;;;;;;;;;20.48;36.08;101439.22;5008287;28;4266;-60
2022/04/12 09:52:53;;;;;;;;;;;;;;;20.41;34.42;101422.97;5006182;28;4321;-60
2022/04/12 09:55:31;;;;;;;;;;;;;;;20.38;33.71;101425.00;5011108;28;5279;-60
2022/04/12 09:58:18;;;;;;;;;;;;;;;20.31;33.34;101414.53;5010410;28;4191;-60
2022/04/12 10:00:47;;;;;;;;;;;;;;;20.31;32.81;101414.53;5012464;28;4310;-58
2022/04/12 10:03:14;;;;;;;;;;;;;;;20.28;32.43;101410.06;5012659;28;4057;-57
2022/04/12 10:05:41;;;;;;;;;;;;;;;20.30;32.08;101413.81;5011967;28;5390;-57
2022/04/12 10:08:11;;;;;;;;;;;;;;;20.29;31.86;101406.56;5007663;28;6545;-50
2022/04/12 10:10:42;;;;;;;;;;;;;;;20.29;32.08;101411.56;5009570;28;4155;-53
2022/04/12 10:13:08;;;;;;;;;;;;;;;20.26;31.78;101413.56;5010623;28;5165;-53
2022/04/12 10:15:34;;;;;;;;;;;;;;;20.24;31.32;101409.84;5010769;28;5600;-54
2022/04/12 10:18:01;;;;;;;;;;;;;;;20.25;31.50;101405.59;5013603;28;4246;-52
2022/04/12 10:20:27;;;;;;;;;;;;;;;20.20;31.35;101403.84;4999653;28;5216;-52
2022/04/12 10:22:54;;;;;;;;;;;;;;;20.21;31.39;101397.47;4988344;28;5339;-54
2022/04/12 10:25:20;;;;;;;;;;;;;;;20.25;30.87;101402.72;4993231;28;5529;-59
2022/04/12 10:27:47;;;;;;;;;;;;;;;20.23;31.29;101402.63;5013223;28;4267;-58
2022/04/12 10:30:21;;;;;;;;;;;;;;;20.23;30.99;101391.09;5012528;28;4284;-52
2022/04/12 10:32:57;;;;;;;;;;;;;;;20.36;32.74;101392.50;5004617;28;4259;-55
2022/04/12 10:35:23;;;;;;;;;;;;;;;18.92;30.34;101392.91;5011662;28;4179;-53
2022/04/12 10:37:51;;;;;;;;;;;;;;;19.86;33.67;101400.56;5012504;28;4145;-48
2022/04/12 10:40:37;;;;;;;;;;;;;;;20.30;32.73;101390.06;5012893;28;4132;-50
2022/04/12 10:43:03;;;;;;;;;;;;;;;20.48;32.85;101388.19;4999911;28;4338;-48
2022/04/12 10:45:31;;;;;;;;;;;;;;;20.61;33.27;101377.34;5016962;28;4258;-50
2022/04/12 10:47:57;;;;;;;;;;;;;;;20.71;33.76;101375.03;5016736;28;5542;-48
2022/04/12 10:50:24;;;;;;;;;;;;;;;20.73;34.72;101380.13;5014973;28;4224;-48
2022/04/12 10:52:51;;;;;;;;;;;;;;;20.85;34.23;101372.16;5016150;28;4337;-47
2022/04/12 10:55:18;;;;;;;;;;;;;;;20.91;34.36;101372.44;5015489;28;4125;-49
2022/04/12 10:57:45;;;;;;;;;;;;;;;20.95;34.45;101363.28;5006846;28;4055;-51
2022/04/12 11:00:12;;;;;;;;;;;;;;;21.04;34.66;101373.84;5006012;28;4316;-47
2022/04/12 11:02:39;;;;;;;;;;;;;;;21.09;34.91;101381.28;5011382;28;4081;-53
2022/04/12 11:05:07;;;;;;;;;;;;;;;21.17;35.48;101373.09;4999864;28;4223;-53
2022/04/12 11:07:36;;;;;;;;;;;;;;;21.20;35.40;101371.78;5013921;28;4264;-48
2022/04/12 11:10:11;;;;;;;;;;;;;;;21.23;35.53;101364.72;5010455;28;4322;-51
2022/04/12 11:12:41;;;;;;;;;;;;;;;21.26;35.60;101371.38;5014058;28;4064;-48
2022/04/12 11:15:24;;;;;;;;;;;;;;;21.27;35.81;101373.59;5013280;28;4285;-48
2022/04/12 11:18:03;;;;;;;;;;;;;;;21.29;36.11;101358.53;5016273;28;5491;-49
2022/04/12 11:20:31;;;;;;;;;;;;;;;21.33;36.36;101365.25;5014536;28;4144;-50
2022/04/12 11:22:57;;;;;;;;;;;;;;;21.37;36.69;101358.19;5014658;28;4151;-47
2022/04/12 11:25:26;;;;;;;;;;;;;;;21.45;36.86;101355.75;5015194;28;5232;-48
2022/04/12 11:27:56;;;;;;;;;;;;;;;21.40;37.07;101343.28;5015487;28;4332;-48
2022/04/12 11:30:23;;;;;;;;;;;;;;;21.45;37.21;101338.47;5004377;28;5252;-51
2022/04/12 11:32:49;;;;;;;;;;;;;;;21.47;37.51;101344.34;5004637;28;4256;-50
2022/04/12 11:35:16;;;;;;;;;;;;;;;21.48;37.90;101337.19;5007021;28;5268;-58
2022/04/12 11:37:42;;;;;;;;;;;;;;;21.48;36.08;101337.19;4996620;28;4152;-51
2022/04/12 11:40:09;;;;;;;;;;;;;;;21.54;35.62;101340.38;5008098;28;4095;-50
2022/04/12 11:42:35;;;;;;;;;;;;;;;21.63;36.15;101335.75;5012942;28;4195;-47
2022/04/12 11:45:02;;;;;;;;;;;;;;;21.67;36.62;101336.69;5014418;28;4402;-48
2022/04/12 11:47:28;;;;;;;;;;;;;;;21.73;36.71;101342.75;5010579;28;4389;-47
2022/04/12 11:49:54;;;;;;;;;;;;;;;21.74;36.98;101340.63;5011862;28;4349;-50
2022/04/12 11:52:21;;;;;;;;;;;;;;;21.80;37.24;101343.03;5012224;28;4327;-46
2022/04/12 11:54:48;;;;;;;;;;;;;;;21.80;37.40;101349.53;4998883;28;4094;-48
2022/04/12 11:57:20;;;;;;;;;;;;;;;21.78;37.70;101349.44;5016193;28;4162;-50
2022/04/12 11:59:47;;;;;;;;;;;;;;;21.74;38.23;101344.25;5005632;28;4176;-62
2022/04/12 12:02:14;;;;;;;;;;;;;;;21.60;35.19;101337.78;5007905;28;4974;-63
2022/04/12 12:04:44;;;;;;;;;;;;;;;21.66;34.52;101334.44;5008143;28;4022;-49
2022/04/12 12:07:11;;;;;;;;;;;;;;;21.65;33.53;101327.94;4996554;28;5258;-47
2022/04/12 12:09:56;;;;;;;;;;;;;;;21.67;32.45;101330.94;5010348;28;4274;-45
2022/04/12 12:12:35;;;;;;;;;;;;;;;21.65;32.86;101322.19;5009041;28;5319;-58
2022/04/12 12:15:12;;;;;;;;;;;;;;;21.69;32.90;101339.69;5011121;28;4180;-58
2022/04/12 12:17:39;;;;;;;;;;;;;;;21.68;32.36;101335.28;5006791;28;4068;-58
2022/04/12 12:20:07;;;;;;;;;;;;;;;21.66;32.23;101332.31;5001459;28;4371;-57
2022/04/12 12:22:37;;;;;;;;;;;;;;;21.66;31.29;101326.53;5007476;28;4097;-58
2022/04/12 12:25:03;;;;;;;;;;;;;;;21.62;33.03;101322.72;5006702;28;4026;-58
2022/04/12 12:27:31;;;;;;;;;;;;;;;21.57;33.06;101312.41;5009195;28;4198;-59
2022/04/12 12:30:07;;;;;;;;;;;;;;;21.60;32.83;101314.75;5008114;28;4275;-58
2022/04/12 12:32:34;;;;;;;;;;;;;;;21.59;32.77;101310.34;5005530;28;4185;-56
2022/04/12 12:35:02;;;;;;;;;;;;;;;21.58;32.80;101316.75;5004216;28;4187;-58
2022/04/12 12:37:28;;;;;;;;;;;;;;;21.57;32.60;101310.25;5003473;28;4155;-58
2022/04/12 12:39:55;;;;;;;;;;;;;;;21.59;32.24;101304.59;5002954;28;5320;-58
2022/04/12 12:42:22;;;;;;;;;;;;;;;21.52;33.84;101299.91;4999965;28;5295;-59
2022/04/12 12:44:48;;;;;;;;;;;;;;;21.55;34.03;101295.75;5008045;28;4213;-51
2022/04/12 12:47:14;;;;;;;;;;;;;;;21.66;34.07;101294.84;5015987;28;4199;-53
2022/04/12 12:49:41;;;;;;;;;;;;;;;21.68;34.75;101294.94;5010727;28;4258;-51
2022/04/12 12:52:11;;;;;;;;;;;;;;;21.67;36.70;101289.81;5013366;28;4311;-48